Time;durP1;ratioP1;P1;durP2;ratioP2;P2;SDS_P1;SDS_P2;PMS_P1;PMS_P2;Temp;Humidity;BMP_temperature;BMP_pressure;BME280_temperature;BME280_humidity;BME280_pressure;Samples;Min_cycle;Max_cycle;Signal;HPM_P1;HPM_P2
2023/07/02 00:00:38;;;;;;;17.45;7.22;;;;;;;;;;5058755;28;20408;-80
2023/07/02 00:03:04;;;;;;;19.25;7.07;;;;;;;;;;5090611;28;20921;-80
2023/07/02 00:05:31;;;;;;;21.73;7.30;;;;;;;;;;5076401;28;20793;-80
2023/07/02 00:07:57;;;;;;;18.20;7.38;;;;;;;;;;5073449;28;21428;-81
2023/07/02 00:10:23;;;;;;;21.98;7.30;;;;;;;;;;5071422;28;20421;-81
2023/07/02 00:12:49;;;;;;;16.58;7.20;;;;;;;;;;5091637;28;20901;-81
2023/07/02 00:15:15;;;;;;;19.52;7.57;;;;;;;;;;5072815;28;20410;-81
2023/07/02 00:17:42;;;;;;;16.42;7.43;;;;;;;;;;5071953;28;20770;-80
2023/07/02 00:20:14;;;;;;;20.88;7.72;;;;;;;;;;5074534;28;20426;-80
2023/07/02 00:22:45;;;;;;;19.27;7.85;;;;;;;;;;5093191;28;20465;-79
2023/07/02 00:25:12;;;;;;;21.80;8.05;;;;;;;;;;5076647;28;20511;-79
2023/07/02 00:27:38;;;;;;;19.85;7.53;;;;;;;;;;5079838;28;20453;-79
2023/07/02 00:30:05;;;;;;;19.58;7.25;;;;;;;;;;5071696;28;20425;-79
2023/07/02 00:32:31;;;;;;;22.05;7.80;;;;;;;;;;5077884;28;20934;-79
2023/07/02 00:34:57;;;;;;;18.88;8.40;;;;;;;;;;5077583;28;20777;-79
2023/07/02 00:37:23;;;;;;;18.02;7.00;;;;;;;;;;5081810;28;20420;-80
2023/07/02 00:39:49;;;;;;;20.15;7.65;;;;;;;;;;5092012;28;20439;-80
2023/07/02 00:42:16;;;;;;;19.00;7.47;;;;;;;;;;5092267;28;20506;-80
2023/07/02 00:44:43;;;;;;;16.13;7.50;;;;;;;;;;5091524;28;20417;-80
2023/07/02 00:47:09;;;;;;;22.58;7.82;;;15.90;99.90;;;;;;5060720;28;20441;-81
2023/07/02 00:49:35;;;;;;;24.17;8.20;;;;;;;;;;5057177;28;20526;-80
2023/07/02 00:52:02;;;;;;;21.23;7.57;;;;;;;;;;5088262;28;20984;-80
2023/07/02 00:54:31;;;;;;;21.55;7.85;;;;;;;;;;5091721;28;20504;-80
2023/07/02 00:57:02;;;;;;;24.03;8.00;;;16.00;99.90;;;;;;5077838;28;20422;-80
2023/07/02 00:59:29;;;;;;;22.40;8.30;;;;;;;;;;5093388;28;20471;-80
2023/07/02 01:01:56;;;;;;;22.35;7.88;;;;;;;;;;5092068;28;20425;-80
2023/07/02 01:04:27;;;;;;;20.70;8.80;;;;;;;;;;5092265;28;20414;-80
2023/07/02 01:06:57;;;;;;;18.92;7.55;;;;;;;;;;5078993;28;20785;-80
2023/07/02 01:09:25;;;;;;;25.23;8.40;;;;;;;;;;5097082;28;20408;-81
2023/07/02 01:11:54;;;;;;;21.65;8.68;;;15.60;99.90;;;;;;5094999;28;20913;-81
2023/07/02 01:14:29;;;;;;;24.13;8.60;;;;;;;;;;5078342;28;20959;-81
2023/07/02 01:16:57;;;;;;;22.77;8.80;;;15.70;99.90;;;;;;5062917;28;20505;-81
2023/07/02 01:19:33;;;;;;;24.58;8.52;;;;;;;;;;5095304;28;20431;-80
2023/07/02 01:22:00;;;;;;;31.10;8.73;;;;;;;;;;5092445;28;20553;-81
2023/07/02 01:24:27;;;;;;;23.60;8.43;;;;;;;;;;5076426;28;20453;-81
2023/07/02 01:26:53;;;;;;;25.98;8.60;;;;;;;;;;5082774;28;20949;-81
2023/07/02 01:29:20;;;;;;;22.80;8.50;;;15.50;99.90;;;;;;5062318;28;20427;-81
2023/07/02 01:31:47;;;;;;;21.13;8.10;;;15.40;99.90;;;;;;5062602;28;20425;-81
2023/07/02 01:34:13;;;;;;;20.05;8.40;;;;;;;;;;5079976;28;20424;-81
2023/07/02 01:36:40;;;;;;;24.10;8.60;;;;;;;;;;5110645;28;20398;-81
2023/07/02 01:39:06;;;;;;;25.13;8.80;;;;;;;;;;5092231;28;20493;-81
2023/07/02 01:41:53;;;;;;;29.63;8.93;;;15.10;99.90;;;;;;5076728;28;20893;-81
2023/07/02 01:44:19;;;;;;;21.35;8.45;;;;;;;;;;5056315;28;20400;-80
2023/07/02 01:46:48;;;;;;;22.00;8.40;;;;;;;;;;5086678;28;20747;-80
2023/07/02 01:49:20;;;;;;;28.30;9.10;;;15.10;99.90;;;;;;5075915;28;20417;-81
2023/07/02 01:51:50;;;;;;;32.58;8.88;;;;;;;;;;5076819;28;20504;-81
2023/07/02 01:54:16;;;;;;;26.35;9.20;;;;;;;;;;5092112;28;20463;-81
2023/07/02 01:56:42;;;;;;;20.95;7.80;;;;;;;;;;5062456;28;20408;-81
2023/07/02 01:59:08;;;;;;;23.77;8.95;;;;;;;;;;5095542;28;20430;-81
2023/07/02 02:01:34;;;;;;;24.52;8.15;;;;;;;;;;5096078;28;20406;-81
2023/07/02 02:04:01;;;;;;;25.05;8.48;;;;;;;;;;5074149;28;20900;-81
2023/07/02 02:06:27;;;;;;;24.58;8.75;;;;;;;;;;5096318;28;20439;-81
2023/07/02 02:08:53;;;;;;;22.27;8.60;;;;;;;;;;5096567;28;20881;-81
2023/07/02 02:11:19;;;;;;;26.00;8.57;;;;;;;;;;5066341;28;20445;-81
2023/07/02 02:13:45;;;;;;;26.58;9.25;;;;;;;;;;5093481;28;20410;-81
2023/07/02 02:16:11;;;;;;;27.73;8.87;;;;;;;;;;5059348;28;20459;-81
2023/07/02 02:18:37;;;;;;;21.92;8.00;;;;;;;;;;5075607;28;20529;-81
2023/07/02 02:21:03;;;;;;;22.55;8.30;;;;;;;;;;5074798;28;20418;-81
2023/07/02 02:23:29;;;;;;;24.43;8.40;;;;;;;;;;5073421;28;20437;-81
2023/07/02 02:25:55;;;;;;;22.02;8.65;;;;;;;;;;5061898;28;20419;-80
2023/07/02 02:28:22;;;;;;;21.27;8.35;;;;;;;;;;5085324;28;20414;-81
2023/07/02 02:30:48;;;;;;;25.77;9.00;;;;;;;;;;5091302;28;20492;-81
2023/07/02 02:33:14;;;;;;;21.70;8.23;;;;;;;;;;5075293;28;20467;-81
2023/07/02 02:35:40;;;;;;;26.52;8.73;;;;;;;;;;5076904;28;20446;-80
2023/07/02 02:38:06;;;;;;;24.48;9.55;;;;;;;;;;5071422;28;20451;-81
2023/07/02 02:40:32;;;;;;;22.05;8.18;;;;;;;;;;5056684;28;20513;-81
2023/07/02 02:42:58;;;;;;;30.17;9.23;;;;;;;;;;5076369;28;20417;-81
2023/07/02 02:45:24;;;;;;;23.60;8.75;;;;;;;;;;5083432;28;20811;-81
2023/07/02 02:47:50;;;;;;;24.80;9.05;;;;;;;;;;5111736;28;20767;-81
2023/07/02 02:50:16;;;;;;;25.08;8.63;;;;;;;;;;5096767;28;20447;-81
2023/07/02 02:52:42;;;;;;;24.58;8.82;;;;;;;;;;5072863;28;20419;-81
2023/07/02 02:55:10;;;;;;;22.57;8.47;;;14.60;99.90;;;;;;5099328;28;20398;-81
2023/07/02 02:57:36;;;;;;;23.60;8.77;;;;;;;;;;5113194;28;20418;-81
2023/07/02 03:00:04;;;;;;;25.73;8.85;;;;;;;;;;5095905;28;20488;-81
2023/07/02 03:02:30;;;;;;;21.65;8.52;;;;;;;;;;5078246;28;20908;-81
2023/07/02 03:04:56;;;;;;;20.67;8.00;;;;;;;;;;5099662;28;20435;-81
2023/07/02 03:07:23;;;;;;;22.40;8.60;;;;;;;;;;5065485;28;20504;-82
2023/07/02 03:09:49;;;;;;;22.58;8.10;;;;;;;;;;5085484;28;20426;-81
2023/07/02 03:12:15;;;;;;;27.45;9.00;;;;;;;;;;5060638;28;20403;-81
2023/07/02 03:14:41;;;;;;;23.52;9.48;;;;;;;;;;5075137;28;20816;-81
2023/07/02 03:17:07;;;;;;;22.30;8.73;;;;;;;;;;5062061;28;20506;-81
2023/07/02 03:19:33;;;;;;;23.50;8.73;;;;;;;;;;5074253;28;20407;-81
2023/07/02 03:21:59;;;;;;;23.77;8.13;;;;;;;;;;5081113;28;20479;-81
2023/07/02 03:24:25;;;;;;;26.88;9.00;;;;;;;;;;5077781;28;20482;-81
2023/07/02 03:26:51;;;;;;;27.25;8.15;;;;;;;;;;5098520;28;20417;-81
2023/07/02 03:29:20;;;;;;;23.33;8.55;;;;;;;;;;5075632;28;20421;-81
2023/07/02 03:31:46;;;;;;;25.58;8.77;;;;;;;;;;5097053;28;20433;-81
2023/07/02 03:34:12;;;;;;;26.05;8.57;;;;;;;;;;5094472;28;20413;-81
2023/07/02 03:36:38;;;;;;;24.27;9.23;;;;;;;;;;5077597;28;20413;-81
2023/07/02 03:39:05;;;;;;;22.67;9.43;;;;;;;;;;5068869;28;20455;-81
2023/07/02 03:41:31;;;;;;;23.85;8.93;;;;;;;;;;5060323;28;20454;-81
2023/07/02 03:43:57;;;;;;;23.67;8.70;;;;;;;;;;5077183;28;20425;-81
2023/07/02 03:46:23;;;;;;;22.93;8.03;;;;;;;;;;5081316;28;20412;-81
2023/07/02 03:48:49;;;;;;;22.98;8.18;;;;;;;;;;5062222;28;20463;-80
2023/07/02 03:51:15;;;;;;;25.55;8.38;;;;;;;;;;5094308;28;20504;-80
2023/07/02 03:53:42;;;;;;;24.13;8.40;;;;;;;;;;5078321;28;20421;-80
2023/07/02 03:56:08;;;;;;;22.85;8.10;;;;;;;;;;5100675;28;20394;-80
2023/07/02 03:58:35;;;;;;;26.45;8.60;;;;;;;;;;5098547;28;20432;-81
2023/07/02 04:01:01;;;;;;;23.15;7.68;;;;;;;;;;5101868;28;20910;-81
2023/07/02 04:03:27;;;;;;;24.40;8.15;;;;;;;;;;5100387;28;20427;-81
2023/07/02 04:05:53;;;;;;;24.97;8.40;;;;;;;;;;5082621;28;20763;-80
2023/07/02 04:08:20;;;;;;;21.67;7.88;;;;;;;;;;5079348;28;20846;-81
2023/07/02 04:10:47;;;;;;;24.92;8.68;;;;;;;;;;5097150;28;20421;-81
2023/07/02 04:13:13;;;;;;;18.75;7.47;;;;;;;;;;5084233;28;20410;-82
2023/07/02 04:15:39;;;;;;;21.75;8.02;;;;;;;;;;5080860;28;20418;-80
2023/07/02 04:18:05;;;;;;;18.63;7.53;;;;;;;;;;5079861;28;20422;-81
2023/07/02 04:20:31;;;;;;;21.23;8.48;;;;;;;;;;5058899;28;20478;-81
2023/07/02 04:22:57;;;;;;;24.83;8.48;;;;;;;;;;5096177;28;20430;-80
2023/07/02 04:25:23;;;;;;;21.25;8.05;;;;;;;;;;5077827;28;20430;-80
2023/07/02 04:27:50;;;;;;;19.63;8.18;;;;;;;;;;5085766;28;20500;-81
2023/07/02 04:30:16;;;;;;;24.17;8.20;;;;;;;;;;5082921;28;20960;-81
2023/07/02 04:32:42;;;;;;;21.20;7.55;;;;;;;;;;5081883;28;20506;-81
2023/07/02 04:35:09;;;;;;;22.52;7.82;;;;;;;;;;5094569;28;20413;-81
2023/07/02 04:37:35;;;;;;;23.95;8.02;;;;;;;;;;5096266;28;20436;-81
2023/07/02 04:40:03;;;;;;;21.77;8.25;;;;;;;;;;5081805;28;20421;-80
2023/07/02 04:42:33;;;;;;;23.25;7.43;;;;;;;;;;5080531;28;20429;-81
2023/07/02 04:45:03;;;;;;;22.15;7.82;;;;;;;;;;5097726;28;20917;-80
2023/07/02 04:47:29;;;;;;;22.30;8.27;;;;;;;;;;5082779;28;20432;-80
2023/07/02 04:49:55;;;;;;;18.50;7.07;;;;;;;;;;5086802;28;20456;-80
2023/07/02 04:52:21;;;;;;;21.85;6.97;;;;;;;;;;5082985;28;20422;-80
2023/07/02 04:54:47;;;;;;;22.50;7.15;;;;;;;;;;5087531;28;20456;-81
2023/07/02 04:57:14;;;;;;;20.25;6.95;;;;;;;;;;5083485;28;20422;-79
2023/07/02 04:59:41;;;;;;;20.10;7.10;;;15.20;99.90;;;;;;5082517;28;20402;-80
2023/07/02 05:02:08;;;;;;;16.40;6.20;;;;;;;;;;5096200;28;20418;-80
2023/07/02 05:04:34;;;;;;;17.85;6.43;;;;;;;;;;5079712;28;20422;-80
2023/07/02 05:07:00;;;;;;;15.90;6.25;;;;;;;;;;5063266;28;20414;-81
2023/07/02 05:09:26;;;;;;;19.17;6.40;;;;;;;;;;5079316;28;20762;-79
2023/07/02 05:11:52;;;;;;;15.30;5.82;;;;;;;;;;5087818;28;20482;-80
2023/07/02 05:14:18;;;;;;;15.02;6.25;;;;;;;;;;5101077;28;20421;-80
2023/07/02 05:16:44;;;;;;;19.93;6.23;;;;;;;;;;5074275;28;21460;-80
2023/07/02 05:19:10;;;;;;;17.30;6.53;;;;;;;;;;5076893;28;20429;-80
2023/07/02 05:21:36;;;;;;;18.25;6.35;;;;;;;;;;5064767;28;20961;-81
2023/07/02 05:24:03;;;;;;;14.73;6.03;;;;;;;;;;5067498;28;20442;-81
2023/07/02 05:26:29;;;;;;;16.73;6.90;;;;;;;;;;5067214;28;20425;-81
2023/07/02 05:28:55;;;;;;;18.65;6.65;;;;;;;;;;5096777;28;20421;-81
2023/07/02 05:31:21;;;;;;;16.48;6.20;;;;;;;;;;5095459;28;20422;-81
2023/07/02 05:33:47;;;;;;;15.63;6.40;;;;;;;;;;5098509;28;20436;-80
2023/07/02 05:36:13;;;;;;;14.02;5.72;;;;;;;;;;5099471;28;20405;-80
2023/07/02 05:38:39;;;;;;;16.80;5.85;;;;;;;;;;5079410;28;20427;-81
2023/07/02 05:41:05;;;;;;;16.70;6.63;;;;;;;;;;5077886;28;20477;-81
2023/07/02 05:43:31;;;;;;;17.88;6.03;;;;;;;;;;5081018;28;20463;-81
2023/07/02 05:46:00;;;;;;;20.80;5.82;;;;;;;;;;5064430;28;20422;-80
2023/07/02 05:48:27;;;;;;;17.43;6.03;;;;;;;;;;5082449;28;20410;-80
2023/07/02 05:50:54;;;;;;;16.17;6.15;;;;;;;;;;5103783;28;20413;-80
2023/07/02 05:53:20;;;;;;;16.33;5.70;;;;;;;;;;5099685;28;20410;-80
2023/07/02 05:55:46;;;;;;;16.45;6.13;;;;;;;;;;5069063;28;20503;-81
2023/07/02 05:58:13;;;;;;;17.25;6.25;;;;;;;;;;5101723;28;20405;-81
2023/07/02 06:00:41;;;;;;;17.52;6.07;;;;;;;;;;5101112;28;20474;-80
2023/07/02 06:03:07;;;;;;;15.30;5.90;;;;;;;;;;5058028;28;20426;-80
2023/07/02 06:05:33;;;;;;;16.27;6.65;;;;;;;;;;5091785;28;20418;-81
2023/07/02 06:07:59;;;;;;;14.17;5.97;;;;;;;;;;5099778;28;20893;-82
2023/07/02 06:10:25;;;;;;;16.00;6.05;;;;;;;;;;5083572;28;20447;-81
2023/07/02 06:12:52;;;;;;;14.52;6.03;;;;;;;;;;5074471;28;20420;-82
2023/07/02 06:15:18;;;;;;;18.48;6.10;;;;;;;;;;5096797;28;20470;-82
2023/07/02 06:17:44;;;;;;;13.57;5.30;;;;;;;;;;5097518;28;20425;-82
2023/07/02 06:20:10;;;;;;;12.35;5.20;;;;;;;;;;5062961;28;20433;-83
2023/07/02 06:22:36;;;;;;;16.65;6.03;;;;;;;;;;5078977;28;20414;-84
2023/07/02 06:25:02;;;;;;;15.37;5.90;;;;;;;;;;5067234;28;20425;-83
2023/07/02 06:27:28;;;;;;;15.50;6.00;;;;;;;;;;5073138;28;20414;-84
2023/07/02 06:29:55;;;;;;;15.88;6.03;;;;;;;;;;5071843;28;20429;-86
2023/07/02 06:32:21;;;;;;;15.50;5.95;;;;;;;;;;5084678;28;20507;-83
2023/07/02 06:34:47;;;;;;;18.25;5.85;;;;;;;;;;5088007;28;20550;-83
2023/07/02 06:37:13;;;;;;;13.07;4.82;;;;;;;;;;5089707;28;20426;-83
2023/07/02 06:39:39;;;;;;;13.45;4.90;;;;;;;;;;5074975;28;20478;-83
2023/07/02 06:42:05;;;;;;;16.38;5.85;;;;;;;;;;5081200;28;20449;-84
2023/07/02 06:44:31;;;;;;;12.25;4.70;;;;;;;;;;5090796;28;20900;-84
2023/07/02 06:46:57;;;;;;;16.13;5.35;;;;;;;;;;5057880;28;20478;-83
2023/07/02 06:49:23;;;;;;;18.08;4.75;;;;;;;;;;5067769;28;20430;-84
2023/07/02 06:51:49;;;;;;;16.17;4.87;;;;;;;;;;5105197;28;20761;-84
2023/07/02 06:54:15;;;;;;;15.80;5.07;;;;;;;;;;5069719;28;20422;-83
2023/07/02 06:56:41;;;;;;;14.75;4.72;;;;;;;;;;5091734;28;20439;-83
2023/07/02 06:59:07;;;;;;;12.63;4.55;;;;;;;;;;5070762;28;20415;-83
2023/07/02 07:01:35;;;;;;;12.38;4.25;;;;;;;;;;5072532;28;20514;-83
2023/07/02 07:04:01;;;;;;;13.35;4.35;;;;;;;;;;5063351;28;20886;-84
2023/07/02 07:06:27;;;;;;;11.88;4.38;;;;;;;;;;5088863;28;20412;-84
2023/07/02 07:08:53;;;;;;;12.90;4.10;;;;;;;;;;5104353;28;20474;-84
2023/07/02 07:11:19;;;;;;;13.37;4.10;;;;;;;;;;5089468;28;20418;-84
2023/07/02 07:13:45;;;;;;;12.52;4.40;;;;;;;;;;5091129;28;20444;-84
2023/07/02 07:16:12;;;;;;;13.20;4.38;;;;;;;;;;5058964;28;20413;-83
2023/07/02 07:18:38;;;;;;;12.57;3.90;;;;;;;;;;5076185;28;20430;-84
2023/07/02 07:21:04;;;;;;;13.38;4.18;;;;;;;;;;5088971;28;20501;-84
2023/07/02 07:23:30;;;;;;;12.23;4.00;;;;;;;;;;5091431;28;20418;-84
2023/07/02 07:25:56;;;;;;;11.07;3.63;;;;;;;;;;5069231;28;20479;-84
2023/07/02 07:28:22;;;;;;;13.15;3.95;;;;;;;;;;5085214;28;20503;-83
2023/07/02 07:30:48;;;;;;;10.90;3.80;;;;;;;;;;5072997;28;20500;-83
2023/07/02 07:33:14;;;;;;;11.23;3.53;;;;;;;;;;5066798;28;20412;-84
2023/07/02 07:35:40;;;;;;;11.93;3.83;;;;;;;;;;5071349;28;20940;-82
2023/07/02 07:38:07;;;;;;;15.02;4.07;;;;;;;;;;5088164;28;20616;-83
2023/07/02 07:40:33;;;;;;;10.65;3.50;;;;;;;;;;5074481;28;21051;-84
2023/07/02 07:42:59;;;;;;;9.75;3.83;;;;;;;;;;5070340;28;20425;-84
2023/07/02 07:45:25;;;;;;;11.88;3.80;;;;;;;;;;5062160;28;20497;-84
2023/07/02 07:47:51;;;;;;;13.52;4.00;;;;;;;;;;5072503;28;20483;-83
2023/07/02 07:50:17;;;;;;;11.82;3.63;;;;;;;;;;5051792;28;20442;-82
2023/07/02 07:52:43;;;;;;;10.60;3.80;;;;;;;;;;5085522;28;20414;-82
2023/07/02 07:55:09;;;;;;;12.65;4.15;;;;;;;;;;5072474;28;20468;-83
2023/07/02 07:57:37;;;;;;;10.20;3.78;;;18.10;99.90;;;;;;5091332;28;20767;-83
2023/07/02 08:00:12;;;;;;;11.45;3.67;;;;;;;;;;5083297;28;20461;-85
2023/07/02 08:02:38;;;;;;;9.63;3.47;;;;;;;;;;5070489;28;20759;-84
2023/07/02 08:05:05;;;;;;;12.02;3.78;;;18.10;99.90;;;;;;5090043;28;20429;-85
2023/07/02 08:07:34;;;;;;;11.57;3.67;;;;;;;;;;5070013;28;20433;-83
2023/07/02 08:10:02;;;;;;;9.85;3.60;;;;;;;;;;5065904;28;20975;-83
2023/07/02 08:12:29;;;;;;;14.73;4.68;;;;;;;;;;5092506;28;20902;-84
2023/07/02 08:14:55;;;;;;;12.25;4.43;;;;;;;;;;5092436;28;20504;-84
2023/07/02 08:17:21;;;;;;;15.35;4.90;;;;;;;;;;5089432;28;20407;-79
2023/07/02 08:19:48;;;;;;;13.30;4.40;;;;;;;;;;5073488;28;20406;-80
2023/07/02 08:22:14;;;;;;;12.07;4.03;;;;;;;;;;5050214;28;20510;-84
2023/07/02 08:24:40;;;;;;;11.52;4.10;;;;;;;;;;5089675;28;20440;-86
2023/07/02 08:27:06;;;;;;;12.82;4.28;;;;;;;;;;5071051;28;20519;-84
2023/07/02 08:29:33;;;;;;;14.35;4.30;;;;;;;;;;5073538;28;20432;-84
2023/07/02 08:31:59;;;;;;;10.30;4.10;;;;;;;;;;5088852;28;20406;-85
2023/07/02 08:34:25;;;;;;;11.00;4.30;;;;;;;;;;5073410;28;20413;-86
2023/07/02 08:36:51;;;;;;;12.95;4.50;;;;;;;;;;5071797;28;20428;-87
2023/07/02 08:39:17;;;;;;;11.27;4.80;;;;;;;;;;5072187;28;20911;-84
2023/07/02 08:41:44;;;;;;;12.73;4.20;;;18.40;99.90;;;;;;5093995;28;20413;-87
2023/07/02 08:44:13;;;;;;;15.18;4.00;;;;;;;;;;5073638;28;20423;-86
2023/07/02 08:46:39;;;;;;;13.48;4.68;;;;;;;;;;5077599;28;20405;-86
2023/07/02 08:49:05;;;;;;;9.00;4.13;;;;;;;;;;5093662;28;20418;-86
2023/07/02 08:51:31;;;;;;;11.60;4.22;;;;;;;;;;5075690;28;20418;-79
2023/07/02 08:53:57;;;;;;;11.63;4.25;;;;;;;;;;5081376;28;20414;-78
2023/07/02 08:56:23;;;;;;;13.65;4.82;;;18.50;99.90;;;;;;5057002;28;20414;-78
2023/07/02 08:58:49;;;;;;;10.82;3.78;;;;;;;;;;5089493;28;20419;-78
2023/07/02 09:01:15;;;;;;;10.95;3.75;;;;;;;;;;5049649;28;20942;-79
2023/07/02 09:03:42;;;;;;;12.50;3.67;;;;;;;;;;5069872;28;20410;-79
2023/07/02 09:06:09;;;;;;;10.05;3.58;;;;;;;;;;5069048;28;20426;-79
2023/07/02 09:08:35;;;;;;;10.50;3.97;;;;;;;;;;5086929;28;20429;-79
2023/07/02 09:11:12;;;;;;;10.05;4.00;;;17.50;99.90;;;;;;5066680;28;20428;-77
2023/07/02 09:13:48;;;;;;;14.32;4.20;;;17.40;99.90;;;;;;5066357;28;20483;-77
2023/07/02 09:16:41;;;;;;;11.43;4.22;;;;;;;;;;5086814;28;20414;-77
2023/07/02 09:19:08;;;;;;;11.17;4.30;;;;;;;;;;5084329;28;20479;-77
2023/07/02 09:21:43;;;;;;;14.50;4.70;;;17.50;99.90;;;;;;5090783;28;20803;-77
2023/07/02 09:24:20;;;;;;;15.25;4.50;;;17.50;99.90;;;;;;5067370;28;20429;-77
2023/07/02 09:26:49;;;;;;;16.88;4.90;;;;;;;;;;5060401;28;20427;-77
2023/07/02 09:29:28;;;;;;;11.85;4.00;;;17.50;99.90;;;;;;5092122;28;20417;-78
2023/07/02 09:31:54;;;;;;;11.00;4.15;;;;;;;;;;5090095;28;20422;-77
2023/07/02 09:34:20;;;;;;;12.47;4.20;;;;;;;;;;5069250;28;20431;-77
2023/07/02 09:36:46;;;;;;;8.98;3.85;;;;;;;;;;5073885;28;20499;-77
2023/07/02 09:39:14;;;;;;;12.05;3.85;;;;;;;;;;5074013;28;20410;-78
2023/07/02 09:41:44;;;;;;;13.50;4.05;;;;;;;;;;5071221;28;21042;-78
2023/07/02 09:44:10;;;;;;;10.75;4.00;;;;;;;;;;5086130;28;20429;-76
2023/07/02 09:46:56;;;;;;;14.25;4.65;;;;;;;;;;5087182;28;20426;-76
2023/07/02 09:49:23;;;;;;;12.75;4.38;;;;;;;;;;5080604;28;20438;-77
2023/07/02 09:51:49;;;;;;;10.80;3.55;;;;;;;;;;5080646;28;20523;-77
2023/07/02 09:54:16;;;;;;;11.65;3.42;;;;;;;;;;5072549;28;20978;-76
2023/07/02 09:56:42;;;;;;;9.30;3.17;;;;;;;;;;5087641;28;20787;-76
2023/07/02 09:59:07;;;;;;;8.00;3.05;;;19.10;99.90;;;;;;5082543;28;20406;-77
2023/07/02 10:01:38;;;;;;;8.55;3.20;;;;;;;;;;5088221;28;20427;-76
2023/07/02 10:04:12;;;;;;;10.23;3.35;;;;;;;;;;5090946;28;20504;-78
2023/07/02 10:06:51;;;;;;;11.63;3.87;;;;;;;;;;5079001;28;20485;-77
2023/07/02 10:09:17;;;;;;;13.52;4.57;;;;;;;;;;5064922;28;20495;-78
2023/07/02 10:11:44;;;;;;;9.82;3.75;;;;;;;;;;5088540;28;20418;-77
2023/07/02 10:14:10;;;;;;;10.90;3.80;;;;;;;;;;5084094;28;20463;-78
2023/07/02 10:16:53;;;;;;;10.98;3.58;;;;;;;;;;5087992;28;20951;-76
2023/07/02 10:19:19;;;;;;;11.73;3.70;;;;;;;;;;5083491;28;20807;-78
2023/07/02 10:21:45;;;;;;;9.45;3.10;;;;;;;;;;5089209;28;20925;-76
2023/07/02 10:24:12;;;;;;;11.43;3.38;;;;;;;;;;5071621;28;20459;-76
2023/07/02 10:26:39;;;;;;;10.10;3.40;;;;;;;;;;5086893;28;20432;-76
2023/07/02 10:29:06;;;;;;;8.95;3.38;;;;;;;;;;5067850;28;20560;-76
2023/07/02 10:31:33;;;;;;;11.15;3.40;;;;;;;;;;5069612;28;20943;-77
2023/07/02 10:33:59;;;;;;;9.90;3.45;;;;;;;;;;5087179;28;21050;-76
2023/07/02 10:36:25;;;;;;;9.27;3.58;;;;;;;;;;5070540;28;20472;-77
2023/07/02 10:38:52;;;;;;;9.30;3.08;;;;;;;;;;5070807;28;20505;-77
2023/07/02 10:41:29;;;;;;;10.98;3.90;;;19.20;99.90;;;;;;5087909;28;20501;-77
2023/07/02 10:43:56;;;;;;;9.93;3.40;;;;;;;;;;5081949;28;20417;-78
2023/07/02 10:46:22;;;;;;;12.67;3.50;;;;;;;;;;5056190;28;20500;-78
2023/07/02 10:48:58;;;;;;;9.70;3.40;;;;;;;;;;5090831;28;20743;-78
2023/07/02 10:51:24;;;;;;;9.15;3.10;;;;;;;;;;5071486;28;20432;-78
2023/07/02 10:53:58;;;;;;;11.82;3.25;;;;;;;;;;5063736;28;21031;-77
2023/07/02 10:56:25;;;;;;;9.20;3.45;;;;;;;;;;5071625;28;20488;-78
2023/07/02 10:58:52;;;;;;;9.88;3.35;;;;;;;;;;5071358;28;20909;-78
2023/07/02 11:01:24;;;;;;;12.32;3.63;;;;;;;;;;5073435;28;20441;-77
2023/07/02 11:04:01;;;;;;;10.30;3.40;;;19.20;99.90;;;;;;5055438;28;20421;-77
2023/07/02 11:06:32;;;;;;;6.97;2.97;;;;;;;;;;5068491;28;20421;-77
2023/07/02 11:08:58;;;;;;;7.80;2.80;;;;;;;;;;5085714;28;20426;-77
2023/07/02 11:11:24;;;;;;;8.15;3.20;;;20.00;99.90;;;;;;5068388;28;20827;-77
2023/07/02 11:13:51;;;;;;;7.20;2.78;;;;;;;;;;5072778;28;20406;-77
2023/07/02 11:16:18;;;;;;;6.38;2.72;;;;;;;;;;5081868;28;20505;-78
2023/07/02 11:18:44;;;;;;;6.28;2.40;;;;;;;;;;5064852;28;20424;-78
2023/07/02 11:21:10;;;;;;;8.30;2.50;;;20.40;99.90;;;;;;5064598;28;20422;-78
2023/07/02 11:23:36;;;;;;;7.68;2.60;;;;;;;;;;5087265;28;20453;-78
2023/07/02 11:26:03;;;;;;;7.35;2.50;;;20.40;99.90;;;;;;5070733;28;20500;-78
2023/07/02 11:28:31;;;;;;;7.57;2.67;;;;;;;;;;5052722;28;20419;-78
2023/07/02 11:30:58;;;;;;;7.90;3.08;;;;;;;;;;5068018;28;20936;-77
2023/07/02 11:33:34;;;;;;;10.57;3.55;;;;;;;;;;5060389;28;20421;-77
2023/07/02 11:36:00;;;;;;;8.07;3.10;;;;;;;;;;5070701;28;20481;-77
2023/07/02 11:38:27;;;;;;;8.30;2.97;;;;;;;;;;5079526;28;20412;-79
2023/07/02 11:40:53;;;;;;;10.00;2.80;;;;;;;;;;5067705;28;20508;-79
2023/07/02 11:43:19;;;;;;;10.57;3.05;;;;;;;;;;5084051;28;20416;-78
2023/07/02 11:45:44;;;;;;;10.18;3.08;;;20.10;99.90;;;;;;5067670;28;20425;-79
2023/07/02 11:48:11;;;;;;;11.02;3.40;;;;;;;;;;5068759;28;20417;-79
2023/07/02 11:50:37;;;;;;;8.77;2.92;;;;;;;;;;5054285;28;20532;-79
2023/07/02 11:53:03;;;;;;;8.43;3.05;;;;;;;;;;5089135;28;20409;-79
2023/07/02 11:55:29;;;;;;;7.45;2.95;;;;;;;;;;5052744;28;20417;-79
2023/07/02 11:57:55;;;;;;;9.87;3.17;;;;;;;;;;5054846;28;20418;-79
2023/07/02 12:00:21;;;;;;;8.63;2.80;;;;;;;;;;5087473;28;20479;-79
2023/07/02 12:02:47;;;;;;;6.15;2.65;;;;;;;;;;5064258;28;20428;-78
2023/07/02 12:05:13;;;;;;;6.30;2.67;;;;;;;;;;5078854;28;20424;-81
2023/07/02 12:07:39;;;;;;;6.65;2.25;;;;;;;;;;5052148;28;20422;-81
2023/07/02 12:10:06;;;;;;;7.75;2.50;;;;;;;;;;5087615;28;20763;-81
2023/07/02 12:12:32;;;;;;;8.73;2.75;;;;;;;;;;5070105;28;20502;-81
2023/07/02 12:14:58;;;;;;;7.00;2.65;;;;;;;;;;5071467;28;20410;-81
2023/07/02 12:17:24;;;;;;;7.40;2.40;;;;;;;;;;5056135;28;20445;-79
2023/07/02 12:19:51;;;;;;;8.80;2.88;;;;;;;;;;5092926;28;20409;-81
2023/07/02 12:22:18;;;;;;;6.72;2.65;;;;;;;;;;5068085;28;20455;-81
2023/07/02 12:24:44;;;;;;;9.82;3.15;;;;;;;;;;5076849;28;20421;-81
2023/07/02 12:27:10;;;;;;;11.93;2.87;;;;;;;;;;5057029;28;20492;-81
2023/07/02 12:29:36;;;;;;;9.37;3.20;;;;;;;;;;5058097;28;20412;-81
2023/07/02 12:32:02;;;;;;;9.45;3.10;;;;;;;;;;5073039;28;20453;-81
2023/07/02 12:34:29;;;;;;;7.82;3.25;;;;;;;;;;5074596;28;20992;-81
2023/07/02 12:36:55;;;;;;;7.87;3.20;;;;;;;;;;5059856;28;20493;-81
2023/07/02 12:39:21;;;;;;;8.43;3.50;;;;;;;;;;5064925;28;20804;-81
2023/07/02 12:41:47;;;;;;;11.25;3.38;;;;;;;;;;5065331;28;20438;-82
2023/07/02 12:44:13;;;;;;;7.95;3.63;;;;;;;;;;5069908;28;20421;-81
2023/07/02 12:46:39;;;;;;;9.57;3.80;;;;;;;;;;5087770;28;20440;-81
2023/07/02 12:49:05;;;;;;;10.27;3.85;;;;;;;;;;5092175;28;20417;-81
2023/07/02 12:51:31;;;;;;;11.05;4.10;;;;;;;;;;5091795;28;20964;-81
2023/07/02 12:53:57;;;;;;;10.45;4.43;;;;;;;;;;5063979;28;20411;-81
2023/07/02 12:56:23;;;;;;;11.98;4.55;;;;;;;;;;5055016;28;20502;-82
2023/07/02 12:58:51;;;;;;;10.90;4.00;;;;;;;;;;5088805;28;20425;-82
2023/07/02 13:01:17;;;;;;;10.75;4.35;;;;;;;;;;5067162;28;20492;-82
2023/07/02 13:03:47;;;;;;;11.85;4.38;;;;;;;;;;5074904;28;20494;-81
2023/07/02 13:06:14;;;;;;;11.40;4.00;;;;;;;;;;5087115;28;20436;-80
2023/07/02 13:08:40;;;;;;;11.07;4.15;;;;;;;;;;5051322;28;20613;-80
2023/07/02 13:11:06;;;;;;;14.90;5.10;;;;;;;;;;5064592;28;20901;-81
2023/07/02 13:13:32;;;;;;;11.82;4.57;;;;;;;;;;5069597;28;20417;-81
2023/07/02 13:15:59;;;;;;;10.88;4.30;;;;;;;;;;5045037;28;20414;-81
2023/07/02 13:18:25;;;;;;;13.17;5.10;;;;;;;;;;5068898;28;20422;-81
2023/07/02 13:20:51;;;;;;;12.85;4.78;;;;;;;;;;5085419;28;20429;-81
2023/07/02 13:23:17;;;;;;;11.25;4.32;;;;;;;;;;5071956;28;20421;-81
2023/07/02 13:25:43;;;;;;;10.32;4.47;;;;;;;;;;5039921;28;20432;-80
2023/07/02 13:28:09;;;;;;;10.10;4.03;;;;;;;;;;5080213;28;20420;-81
2023/07/02 13:30:35;;;;;;;9.18;4.20;;;;;;;;;;5056038;28;20418;-80
2023/07/02 13:33:01;;;;;;;13.38;4.28;;;;;;;;;;5065747;28;20410;-80
2023/07/02 13:35:28;;;;;;;11.52;4.50;;;;;;;;;;5071270;28;20417;-81
2023/07/02 13:37:54;;;;;;;8.27;4.10;;;;;;;;;;5058288;28;20498;-80
2023/07/02 13:40:20;;;;;;;9.13;4.20;;;;;;;;;;5089270;28;20986;-81
2023/07/02 13:42:46;;;;;;;11.43;4.40;;;;;;;;;;5071673;28;20419;-83
2023/07/02 13:45:13;;;;;;;10.20;4.28;;;;;;;;;;5062373;28;20419;-81
2023/07/02 13:47:39;;;;;;;10.35;3.85;;;;;;;;;;5069032;28;20431;-81
2023/07/02 13:50:05;;;;;;;9.48;4.15;;;;;;;;;;5060751;28;20458;-81
2023/07/02 13:52:31;;;;;;;10.43;4.40;;;;;;;;;;5078004;28;20770;-79
2023/07/02 13:54:59;;;;;;;10.13;5.07;;;;;;;;;;5068660;28;20475;-81
2023/07/02 13:57:25;;;;;;;12.25;4.45;;;;;;;;;;5086499;28;20426;-80
2023/07/02 13:59:51;;;;;;;14.70;4.70;;;;;;;;;;5091151;28;20410;-81
2023/07/02 14:02:18;;;;;;;9.43;4.57;;;;;;;;;;5068791;28;20417;-81
2023/07/02 14:04:45;;;;;;;11.67;4.40;;;;;;;;;;5080571;28;20505;-81
2023/07/02 14:07:11;;;;;;;9.85;4.53;;;;;;;;;;5077322;28;20421;-80
2023/07/02 14:09:37;;;;;;;12.40;4.30;;;;;;;;;;5088974;28;20515;-81
2023/07/02 14:12:03;;;;;;;10.60;4.57;;;;;;;;;;5054922;28;20431;-79
2023/07/02 14:14:29;;;;;;;11.73;4.60;;;;;;;;;;5084437;28;20417;-80
2023/07/02 14:16:55;;;;;;;11.90;4.85;;;;;;;;;;5074363;28;20437;-81
2023/07/02 14:19:22;;;;;;;12.65;4.97;;;;;;;;;;5072664;28;20416;-82
2023/07/02 14:21:48;;;;;;;11.27;4.32;;;;;;;;;;5090160;28;20464;-81